Time;durP1;ratioP1;P1;durP2;ratioP2;P2;SDS_P1;SDS_P2;PMS_P1;PMS_P2;Temp;Humidity;BMP_temperature;BMP_pressure;BME280_temperature;BME280_humidity;BME280_pressure;Samples;Min_cycle;Max_cycle;Signal;HPM_P1;HPM_P2
2021/01/14 00:00:33;;;;;;;5.55;2.00;;;22.40;46.70;;;;;;5049470;28;45269;-48
2021/01/14 00:02:59;;;;;;;5.10;2.00;;;22.30;46.60;;;;;;5064154;28;45347;-49
2021/01/14 00:05:25;;;;;;;5.90;2.42;;;22.40;46.70;;;;;;5064986;28;45652;-48
2021/01/14 00:07:53;;;;;;;6.32;2.40;;;22.30;46.70;;;;;;5066190;28;46052;-49
2021/01/14 00:10:19;;;;;;;4.65;2.40;;;22.40;46.70;;;;;;5052349;28;45628;-47
2021/01/14 00:12:44;;;;;;;4.80;2.45;;;22.30;46.70;;;;;;5069578;28;45204;-47
2021/01/14 00:15:12;;;;;;;4.53;2.47;;;22.30;46.60;;;;;;5070118;28;45489;-48
2021/01/14 00:17:38;;;;;;;5.30;2.45;;;22.30;46.60;;;;;;5069254;28;45568;-48
2021/01/14 00:20:09;;;;;;;4.70;2.10;;;22.30;46.70;;;;;;5069045;28;45313;-48
2021/01/14 00:22:35;;;;;;;7.38;3.22;;;22.30;46.60;;;;;;5070719;28;45205;-49
2021/01/14 00:25:00;;;;;;;4.95;2.70;;;22.30;46.60;;;;;;5070046;28;45585;-48
2021/01/14 00:27:26;;;;;;;5.63;3.10;;;22.30;46.70;;;;;;5069233;28;45795;-48
2021/01/14 00:29:52;;;;;;;5.00;2.38;;;22.20;46.60;;;;;;5069143;28;45351;-48
2021/01/14 00:32:17;;;;;;;4.57;2.50;;;22.20;46.60;;;;;;5069246;28;45392;-48
2021/01/14 00:34:43;;;;;;;4.95;2.70;;;22.20;46.70;;;;;;5069076;28;45577;-48
2021/01/14 00:37:54;;;;;;;4.43;2.50;;;22.20;46.60;;;;;;5069011;28;45376;-47
2021/01/14 00:39:56;;;;;;;5.28;3.10;;;22.20;46.60;;;;;;5058219;28;45341;-49
2021/01/14 00:42:21;;;;;;;6.40;2.42;;;22.20;46.60;;;;;;5068962;28;45350;-48
2021/01/14 00:44:47;;;;;;;5.25;2.88;;;22.20;46.50;;;;;;5069265;28;45464;-48
2021/01/14 00:47:13;;;;;;;4.97;2.63;;;22.20;46.50;;;;;;5068792;28;46457;-47
2021/01/14 00:49:38;;;;;;;6.72;3.22;;;22.20;46.50;;;;;;5068864;28;45309;-48
2021/01/14 00:52:04;;;;;;;4.13;2.33;;;22.20;46.50;;;;;;5068764;28;45286;-49
2021/01/14 00:54:30;;;;;;;6.72;2.80;;;22.10;46.40;;;;;;5069261;28;45474;-48
2021/01/14 00:56:55;;;;;;;5.22;2.67;;;22.20;46.40;;;;;;5068579;28;46008;-49
2021/01/14 00:59:21;;;;;;;4.82;2.83;;;22.10;46.40;;;;;;5068336;28;45276;-47
2021/01/14 01:01:47;;;;;;;4.60;2.58;;;22.10;46.50;;;;;;5068807;28;45338;-47
2021/01/14 01:04:12;;;;;;;5.25;2.60;;;22.10;46.40;;;;;;5070440;28;45248;-47
2021/01/14 01:06:41;;;;;;;6.88;3.50;;;22.10;46.40;;;;;;5068345;28;46145;-48
2021/01/14 01:09:10;;;;;;;4.90;2.83;;;22.10;46.50;;;;;;5067878;28;45370;-49
2021/01/14 01:11:37;;;;;;;6.10;2.55;;;22.10;46.50;;;;;;5068586;28;45247;-47
2021/01/14 01:14:03;;;;;;;6.03;2.75;;;22.10;46.50;;;;;;5051675;28;45534;-47
2021/01/14 01:16:29;;;;;;;5.35;2.60;;;22.00;46.50;;;;;;5051413;28;46342;-48
2021/01/14 01:18:54;;;;;;;5.07;2.63;;;22.00;46.50;;;;;;5051191;28;45304;-50
2021/01/14 01:21:20;;;;;;;5.82;3.40;;;22.00;46.50;;;;;;5068553;28;45340;-47
2021/01/14 01:23:46;;;;;;;5.28;2.75;;;22.00;46.50;;;;;;5052006;28;45627;-48
2021/01/14 01:26:15;;;;;;;6.47;2.83;;;22.00;46.50;;;;;;5051896;28;45966;-50
2021/01/14 01:28:42;;;;;;;5.20;2.95;;;22.00;46.50;;;;;;5051631;28;45322;-52
2021/01/14 01:31:09;;;;;;;4.50;2.67;;;22.00;46.40;;;;;;5068283;28;45378;-48
2021/01/14 01:33:34;;;;;;;6.00;3.03;;;22.00;46.40;;;;;;5068367;28;45296;-48
2021/01/14 01:36:00;;;;;;;4.95;2.85;;;22.00;46.40;;;;;;5051217;28;46342;-48
2021/01/14 01:38:26;;;;;;;4.63;2.75;;;22.00;46.40;;;;;;5051335;28;45291;-47
2021/01/14 01:40:58;;;;;;;5.00;3.20;;;21.90;46.30;;;;;;5051216;28;45406;-48
2021/01/14 01:43:24;;;;;;;5.07;3.00;;;22.00;46.40;;;;;;5052132;28;45718;-50
2021/01/14 01:45:50;;;;;;;4.95;2.95;;;21.90;46.30;;;;;;5067918;28;46076;-49
2021/01/14 01:48:19;;;;;;;5.57;3.17;;;21.90;46.30;;;;;;5050889;28;45313;-49
2021/01/14 01:50:45;;;;;;;6.00;3.40;;;21.90;46.30;;;;;;5068104;28;45331;-49
2021/01/14 01:53:11;;;;;;;5.65;3.15;;;21.90;46.30;;;;;;5069680;28;45244;-50
2021/01/14 01:55:37;;;;;;;4.43;2.50;;;21.90;46.30;;;;;;5066765;28;46550;-48
2021/01/14 01:58:04;;;;;;;6.40;3.47;;;22.00;46.30;;;;;;5051056;28;45296;-48
2021/01/14 02:00:29;;;;;;;5.25;3.13;;;22.00;46.20;;;;;;5051114;28;45226;-49
2021/01/14 02:02:55;;;;;;;5.13;2.92;;;22.00;46.10;;;;;;5068101;28;45645;-48
2021/01/14 02:05:21;;;;;;;5.65;3.25;;;22.10;46.10;;;;;;5050838;28;45363;-48
2021/01/14 02:08:08;;;;;;;4.70;2.75;;;22.10;45.90;;;;;;5051128;28;45402;-49
2021/01/14 02:10:35;;;;;;;6.03;3.28;;;22.10;45.90;;;;;;5068150;28;45285;-49
2021/01/14 02:13:20;;;;;;;5.97;3.35;;;22.10;45.80;;;;;;5067585;28;45377;-49
2021/01/14 02:15:47;;;;;;;4.22;2.78;;;22.10;45.70;;;;;;5067573;28;45610;-49
2021/01/14 02:18:17;;;;;;;5.47;3.10;;;22.10;45.60;;;;;;5057479;28;45438;-49
2021/01/14 02:20:43;;;;;;;5.30;3.08;;;22.10;45.50;;;;;;5047341;28;45277;-47
2021/01/14 02:23:22;;;;;;;5.30;2.75;;;22.10;45.70;;;;;;5047775;28;45336;-49
2021/01/14 02:26:03;;;;;;;4.90;2.85;;;22.10;45.60;;;;;;5047274;28;46482;-47
2021/01/14 02:28:28;;;;;;;5.35;3.20;;;22.10;45.60;;;;;;5048202;28;45268;-47
2021/01/14 02:30:54;;;;;;;4.35;2.83;;;22.00;45.50;;;;;;5047337;28;45320;-48
2021/01/14 02:33:20;;;;;;;5.05;2.95;;;22.00;45.60;;;;;;5047055;28;45316;-48
2021/01/14 02:35:46;;;;;;;3.80;2.60;;;22.10;45.60;;;;;;5050719;28;46335;-48
2021/01/14 02:38:11;;;;;;;5.70;3.58;;;22.10;45.60;;;;;;5028612;28;45361;-47
2021/01/14 02:40:37;;;;;;;5.05;3.10;;;22.10;45.60;;;;;;5029424;28;45423;-48
2021/01/14 02:43:02;;;;;;;6.10;3.75;;;22.20;45.60;;;;;;5047422;28;45631;-49
2021/01/14 02:45:28;;;;;;;4.60;2.90;;;22.20;45.60;;;;;;5030046;28;46253;-48
2021/01/14 02:47:54;;;;;;;5.88;3.03;;;22.20;45.50;;;;;;5030184;28;45304;-48
2021/01/14 02:50:19;;;;;;;4.72;2.67;;;22.30;45.40;;;;;;5032439;28;45262;-48
2021/01/14 02:52:45;;;;;;;4.30;2.72;;;22.20;45.30;;;;;;5046945;28;45371;-48
2021/01/14 02:55:11;;;;;;;5.10;2.97;;;22.30;45.30;;;;;;5049446;28;46402;-48
2021/01/14 02:57:37;;;;;;;6.68;3.40;;;22.30;45.20;;;;;;5036447;28;45284;-47
2021/01/14 03:00:03;;;;;;;5.03;3.13;;;22.40;45.20;;;;;;5046311;28;45384;-48
2021/01/14 03:02:29;;;;;;;4.43;2.80;;;22.40;45.10;;;;;;5063937;28;45217;-48
2021/01/14 03:04:55;;;;;;;4.78;2.65;;;22.40;45.00;;;;;;5046503;28;45372;-48
2021/01/14 03:07:20;;;;;;;4.18;2.67;;;22.50;45.00;;;;;;5045117;28;45321;-47
2021/01/14 03:09:46;;;;;;;5.38;3.20;;;22.40;44.90;;;;;;5049710;28;45327;-48
2021/01/14 03:12:12;;;;;;;4.78;3.22;;;22.40;44.80;;;;;;5065688;28;48793;-48
2021/01/14 03:14:37;;;;;;;5.13;2.90;;;22.50;44.80;;;;;;5033039;28;46352;-48
2021/01/14 03:17:03;;;;;;;4.88;3.03;;;22.50;44.80;;;;;;5027891;28;45517;-47
2021/01/14 03:19:29;;;;;;;5.15;2.90;;;22.50;44.80;;;;;;5048983;28;45370;-48
2021/01/14 03:21:59;;;;;;;5.00;2.65;;;22.60;44.90;;;;;;5049762;28;45658;-47
2021/01/14 03:24:25;;;;;;;6.03;2.75;;;22.60;44.90;;;;;;5065644;28;45292;-48
2021/01/14 03:26:50;;;;;;;5.38;3.08;;;22.60;44.90;;;;;;5049446;28;45322;-48
2021/01/14 03:29:16;;;;;;;5.40;2.65;;;22.60;44.70;;;;;;5049844;28;45459;-47
2021/01/14 03:31:42;;;;;;;6.22;3.00;;;22.60;44.70;;;;;;5049954;28;45432;-48
2021/01/14 03:34:07;;;;;;;4.85;2.78;;;22.60;44.70;;;;;;5049384;28;45386;-48
2021/01/14 03:36:33;;;;;;;5.30;2.97;;;22.60;44.60;;;;;;5066330;28;45442;-47
2021/01/14 03:39:00;;;;;;;4.43;2.90;;;22.70;44.70;;;;;;5049614;28;45420;-48
2021/01/14 03:41:26;;;;;;;5.32;2.83;;;22.70;44.70;;;;;;5050322;28;45368;-48
2021/01/14 03:43:51;;;;;;;5.95;2.97;;;22.80;45.30;;;;;;5049507;28;46469;-48
2021/01/14 03:46:20;;;;;;;4.15;2.55;;;22.80;44.60;;;;;;5066355;28;45204;-49
2021/01/14 03:48:46;;;;;;;4.25;2.83;;;22.80;44.60;;;;;;5049728;28;45323;-48
2021/01/14 03:51:19;;;;;;;4.68;2.65;;;22.80;44.60;;;;;;5066872;28;45299;-48
2021/01/14 03:53:46;;;;;;;5.03;2.92;;;22.80;44.50;;;;;;5066090;28;46204;-48
2021/01/14 03:56:12;;;;;;;5.10;3.00;;;22.80;44.60;;;;;;5049252;28;45352;-49
2021/01/14 03:58:37;;;;;;;5.35;2.75;;;22.80;44.60;;;;;;5049560;28;45347;-48
2021/01/14 04:01:03;;;;;;;4.00;2.38;;;22.80;44.50;;;;;;5049893;28;45358;-48
2021/01/14 04:03:29;;;;;;;5.18;2.72;;;22.90;44.50;;;;;;5049118;28;45360;-48
2021/01/14 04:05:55;;;;;;;4.15;2.72;;;22.90;44.50;;;;;;5049222;28;45394;-48
2021/01/14 04:08:20;;;;;;;4.60;2.40;;;22.90;44.50;;;;;;5049404;28;45416;-47
2021/01/14 04:10:47;;;;;;;5.07;2.50;;;23.00;44.40;;;;;;5065920;28;45521;-47
2021/01/14 04:13:14;;;;;;;4.13;2.53;;;23.00;44.40;;;;;;5065352;28;46623;-48
2021/01/14 04:15:40;;;;;;;4.32;2.80;;;23.10;44.40;;;;;;5049317;28;45417;-47
2021/01/14 04:18:06;;;;;;;5.28;2.95;;;23.10;44.40;;;;;;5049719;28;45273;-48
2021/01/14 04:20:31;;;;;;;4.20;2.38;;;23.10;44.30;;;;;;5069620;28;45439;-48
2021/01/14 04:22:57;;;;;;;4.88;2.67;;;23.10;44.80;;;;;;5052427;28;46154;-48
2021/01/14 04:25:30;;;;;;;5.20;2.90;;;23.10;44.20;;;;;;5070581;28;45310;-48
2021/01/14 04:28:00;;;;;;;4.28;2.50;;;23.20;44.30;;;;;;5053627;28;45293;-48
2021/01/14 04:30:27;;;;;;;6.18;2.78;;;23.20;44.30;;;;;;5071056;28;45361;-48
2021/01/14 04:33:10;;;;;;;5.32;3.08;;;23.20;44.90;;;;;;5052109;28;45445;-47
2021/01/14 04:35:48;;;;;;;5.22;2.67;;;23.20;44.30;;;;;;5069160;28;45308;-48
2021/01/14 04:38:15;;;;;;;5.57;2.35;;;23.30;44.20;;;;;;5070493;28;45238;-48
2021/01/14 04:40:41;;;;;;;4.45;2.53;;;23.20;44.20;;;;;;5052908;28;45502;-48
2021/01/14 04:43:07;;;;;;;5.32;2.67;;;23.30;44.20;;;;;;5051838;28;45444;-48
2021/01/14 04:45:33;;;;;;;5.65;2.97;;;23.30;44.10;;;;;;5052161;28;45411;-48
2021/01/14 04:47:58;;;;;;;3.70;2.22;;;23.30;44.10;;;;;;5052372;28;45331;-48
2021/01/14 04:50:26;;;;;;;4.45;2.25;;;23.40;44.10;;;;;;5069458;28;45532;-48
2021/01/14 04:52:52;;;;;;;4.40;2.33;;;23.30;44.10;;;;;;5051836;28;46320;-48
2021/01/14 04:55:17;;;;;;;5.15;2.42;;;23.40;44.10;;;;;;5052016;28;45169;-47
2021/01/14 04:57:44;;;;;;;3.97;2.30;;;23.30;44.00;;;;;;5052188;28;45190;-47
2021/01/14 05:00:12;;;;;;;6.53;2.33;;;23.30;44.00;;;;;;5052242;28;45542;-48
2021/01/14 05:03:02;;;;;;;4.75;2.50;;;23.30;44.00;;;;;;5065171;28;46594;-48
2021/01/14 05:05:28;;;;;;;4.18;2.60;;;23.30;44.00;;;;;;5061869;28;45352;-47
2021/01/14 05:08:06;;;;;;;4.85;2.67;;;23.30;44.00;;;;;;5066866;28;45374;-49
2021/01/14 05:10:34;;;;;;;5.45;2.90;;;23.40;44.00;;;;;;5069481;28;45628;-48
2021/01/14 05:13:00;;;;;;;4.75;2.78;;;23.40;44.00;;;;;;5066185;28;46378;-48
2021/01/14 05:15:28;;;;;;;6.00;2.90;;;23.40;43.90;;;;;;5063555;28;45509;-48
2021/01/14 05:17:56;;;;;;;4.85;2.90;;;23.40;43.90;;;;;;5051893;28;46212;-47
2021/01/14 05:20:22;;;;;;;4.05;2.38;;;23.40;43.90;;;;;;5066992;28;45592;-49
2021/01/14 05:22:48;;;;;;;3.90;2.38;;;23.40;43.90;;;;;;5065926;28;45585;-49
2021/01/14 05:25:14;;;;;;;3.20;2.05;;;23.40;43.90;;;;;;5050981;28;45374;-48
2021/01/14 05:27:39;;;;;;;4.22;2.63;;;23.40;43.90;;;;;;5068209;28;45312;-49
2021/01/14 05:30:09;;;;;;;5.63;3.15;;;23.40;43.90;;;;;;5050172;28;45609;-48
2021/01/14 05:32:35;;;;;;;5.88;2.53;;;23.50;43.90;;;;;;5050997;28;46477;-48
2021/01/14 05:35:05;;;;;;;4.05;2.38;;;23.50;43.90;;;;;;5067440;28;45292;-48
2021/01/14 05:37:34;;;;;;;3.58;2.10;;;23.50;43.80;;;;;;5049636;28;45358;-48
2021/01/14 05:40:01;;;;;;;4.65;2.65;;;23.50;43.80;;;;;;5045236;28;45264;-48
2021/01/14 05:42:27;;;;;;;4.38;2.30;;;23.50;43.70;;;;;;5045647;28;45800;-48
2021/01/14 05:44:52;;;;;;;4.95;2.38;;;23.60;43.80;;;;;;5046309;28;45385;-48
2021/01/14 05:47:22;;;;;;;5.75;2.17;;;23.60;43.70;;;;;;5012842;28;45437;-48
2021/01/14 05:50:03;;;;;;;4.13;2.25;;;23.70;43.70;;;;;;5046668;28;45654;-48
2021/01/14 05:52:30;;;;;;;4.00;2.35;;;23.70;43.70;;;;;;5030623;28;45566;-49
2021/01/14 05:55:09;;;;;;;4.18;2.50;;;23.70;43.70;;;;;;5045971;28;45387;-49
2021/01/14 05:57:36;;;;;;;5.90;2.40;;;23.70;43.60;;;;;;5029758;28;45464;-49
2021/01/14 06:00:12;;;;;;;4.10;2.45;;;23.70;43.60;;;;;;5045792;28;45263;-53
2021/01/14 06:02:38;;;;;;;4.35;2.38;;;23.70;43.60;;;;;;5010880;28;45444;-55
2021/01/14 06:05:25;;;;;;;5.22;2.38;;;23.70;43.70;;;;;;5011931;28;45431;-49
2021/01/14 06:07:50;;;;;;;5.07;2.60;;;23.70;43.80;;;;;;5031606;28;45400;-47
2021/01/14 06:10:16;;;;;;;4.68;2.67;;;23.60;43.90;;;;;;5049900;28;45536;-50
2021/01/14 06:12:49;;;;;;;6.22;2.40;;;23.60;44.00;;;;;;5065084;28;45449;-50
2021/01/14 06:15:15;;;;;;;5.35;2.63;;;23.60;44.10;;;;;;5075200;27;45481;-49
2021/01/14 06:17:41;;;;;;;4.75;2.63;;;23.60;44.20;;;;;;5066302;28;45379;-47
2021/01/14 06:20:07;;;;;;;5.72;2.88;;;23.60;44.30;;;;;;5066378;28;45489;-48
2021/01/14 06:22:37;;;;;;;5.22;3.30;;;23.60;44.20;;;;;;5066010;28;46200;-46
2021/01/14 06:25:04;;;;;;;8.07;3.10;;;23.60;44.30;;;;;;5066176;28;45694;-49
2021/01/14 06:27:31;;;;;;;8.68;3.92;;;23.70;44.30;;;;;;5063445;28;45299;-48
2021/01/14 06:30:07;;;;;;;12.02;3.60;;;23.70;44.30;;;;;;5066461;28;45311;-47
2021/01/14 06:32:38;;;;;;;10.85;4.63;;;23.70;44.50;;;;;;5064332;28;46304;-47
2021/01/14 06:35:05;;;;;;;11.80;4.43;;;23.70;44.50;;;;;;5065584;28;45736;-48
2021/01/14 06:37:34;;;;;;;10.13;3.90;;;23.70;44.50;;;;;;5065708;28;45660;-47
2021/01/14 06:40:00;;;;;;;13.15;4.55;;;23.70;44.50;;;;;;5067762;28;45368;-48
2021/01/14 06:42:33;;;;;;;10.15;4.57;;;23.70;44.40;;;;;;5066435;28;46544;-48
2021/01/14 06:45:04;;;;;;;12.65;4.43;;;23.80;44.60;;;;;;5064669;28;45813;-50
2021/01/14 06:47:40;;;;;;;14.57;4.60;;;23.80;44.60;;;;;;5048201;28;45423;-50
2021/01/14 06:50:09;;;;;;;16.13;4.78;;;23.80;45.00;;;;;;5064634;28;45414;-48
2021/01/14 06:52:36;;;;;;;11.18;4.97;;;23.80;44.80;;;;;;5066987;28;45677;-51
2021/01/14 06:55:02;;;;;;;8.65;4.38;;;23.90;44.70;;;;;;5065456;28;45514;-50
2021/01/14 06:57:30;;;;;;;9.20;3.65;;;23.90;44.70;;;;;;5061255;28;45679;-50
2021/01/14 06:59:56;;;;;;;6.82;4.05;;;23.90;44.90;;;;;;5065534;28;45707;-50
2021/01/14 07:02:34;;;;;;;7.25;3.83;;;23.90;44.80;;;;;;5063590;28;46648;-50
2021/01/14 07:05:06;;;;;;;24.70;5.68;;;23.90;44.90;;;;;;5064706;28;45429;-50
2021/01/14 07:07:46;;;;;;;14.82;4.22;;;23.90;45.20;;;;;;5044417;28;45279;-49
2021/01/14 07:10:12;;;;;;;9.50;4.03;;;23.90;44.90;;;;;;5049364;28;45494;-49
2021/01/14 07:12:39;;;;;;;7.45;4.22;;;23.90;45.80;;;;;;5055808;28;45516;-49
2021/01/14 07:15:15;;;;;;;9.30;4.25;;;23.90;45.10;;;;;;5052371;28;45621;-50
2021/01/14 07:17:42;;;;;;;9.90;4.50;;;24.00;45.20;;;;;;5053501;28;45463;-50
2021/01/14 07:20:15;;;;;;;6.90;3.67;;;24.10;45.30;;;;;;5068224;28;46887;-53
2021/01/14 07:22:47;;;;;;;9.00;3.63;;;24.10;45.30;;;;;;5042958;28;46229;-50
2021/01/14 07:25:14;;;;;;;6.75;3.55;;;24.10;45.30;;;;;;5059067;28;45533;-49
2021/01/14 07:27:41;;;;;;;7.65;3.75;;;24.20;45.20;;;;;;5067681;28;45298;-50
2021/01/14 07:30:09;;;;;;;6.90;3.80;;;24.20;45.20;;;;;;5065883;28;45422;-51
2021/01/14 07:32:50;;;;;;;6.43;3.08;;;24.20;45.10;;;;;;5082081;28;45416;-50
2021/01/14 07:35:32;;;;;;;8.88;4.00;;;24.30;45.10;;;;;;5087855;28;45383;-50
2021/01/14 07:37:58;;;;;;;8.98;3.72;;;24.30;45.10;;;;;;5078964;27;45428;-51
2021/01/14 07:40:28;;;;;;;7.53;3.97;;;24.30;45.00;;;;;;5047306;28;45539;-50
2021/01/14 07:42:54;;;;;;;9.43;3.50;;;24.30;45.00;;;;;;5053967;28;46405;-50
2021/01/14 07:45:20;;;;;;;9.23;3.50;;;24.30;45.00;;;;;;5036976;28;45277;-53
2021/01/14 07:47:45;;;;;;;7.38;3.13;;;24.40;45.00;;;;;;5037140;28;45375;-50
2021/01/14 07:50:21;;;;;;;8.35;3.45;;;24.40;45.00;;;;;;5070239;28;45534;-50
2021/01/14 07:52:50;;;;;;;10.02;4.10;;;24.40;44.90;;;;;;5049459;28;45670;-51
2021/01/14 07:55:31;;;;;;;7.68;4.05;;;24.40;44.90;;;;;;5081897;28;45363;-49
2021/01/14 07:58:01;;;;;;;6.45;3.53;;;24.50;45.00;;;;;;5053406;28;45288;-49
2021/01/14 08:00:28;;;;;;;6.55;3.47;;;24.50;44.90;;;;;;5089386;28;45690;-51
2021/01/14 08:03:09;;;;;;;8.45;3.80;;;24.50;44.90;;;;;;5067748;28;45541;-52
2021/01/14 08:05:56;;;;;;;7.20;3.47;;;24.50;45.10;;;;;;5053043;28;45443;-51
2021/01/14 08:08:29;;;;;;;9.57;4.47;;;24.50;44.70;;;;;;5048244;28;45377;-51
2021/01/14 08:11:19;;;;;;;6.05;3.58;;;24.50;45.00;;;;;;5060783;28;45641;-53
2021/01/14 08:14:16;;;;;;;8.60;3.92;;;24.50;44.90;;;;;;5063404;28;46386;-53
2021/01/14 08:16:54;;;;;;;11.98;4.22;;;24.50;44.80;;;;;;5059027;28;45380;-51
2021/01/14 08:19:21;;;;;;;8.10;3.90;;;24.50;44.80;;;;;;5048964;28;45457;-51
2021/01/14 08:22:01;;;;;;;6.63;3.83;;;24.40;44.80;;;;;;5053920;28;45660;-51
2021/01/14 08:24:46;;;;;;;7.07;4.07;;;24.40;44.90;;;;;;5067417;28;45742;-51
2021/01/14 08:27:13;;;;;;;13.82;3.75;;;24.30;45.00;;;;;;5090546;28;45627;-51
2021/01/14 08:29:44;;;;;;;10.50;3.97;;;24.30;44.90;;;;;;5086256;28;45498;-52
2021/01/14 08:32:28;;;;;;;7.68;4.05;;;24.30;45.00;;;;;;5053925;28;45387;-51
2021/01/14 08:34:57;;;;;;;9.18;3.90;;;24.20;44.80;;;;;;5067221;28;45714;-51
2021/01/14 08:37:36;;;;;;;13.00;4.22;;;24.20;44.90;;;;;;5067022;28;45453;-51
2021/01/14 08:40:09;;;;;;;13.55;4.95;;;24.20;44.90;;;;;;5071866;28;45357;-51
2021/01/14 08:42:37;;;;;;;12.32;3.92;;;24.30;44.90;;;;;;5061030;28;45465;-51
2021/01/14 08:45:07;;;;;;;14.57;5.07;;;24.20;44.80;;;;;;5068337;28;45273;-51
2021/01/14 08:47:51;;;;;;;7.88;3.88;;;24.30;44.90;;;;;;5076985;28;46022;-51
2021/01/14 08:50:37;;;;;;;6.97;4.32;;;24.30;44.90;;;;;;5090265;28;45326;-51
2021/01/14 08:53:08;;;;;;;11.98;4.20;;;24.20;44.90;;;;;;5069371;28;45757;-51
2021/01/14 08:55:34;;;;;;;8.70;3.83;;;24.20;44.90;;;;;;5088817;28;45466;-51
2021/01/14 08:58:00;;;;;;;10.13;4.53;;;24.20;44.90;;;;;;5057743;28;45363;-51
2021/01/14 09:00:26;;;;;;;9.90;4.28;;;24.10;44.80;;;;;;5068297;28;45382;-51
2021/01/14 09:02:52;;;;;;;9.52;4.68;;;24.20;44.90;;;;;;5033692;28;45594;-53
2021/01/14 09:05:17;;;;;;;8.32;3.63;;;24.20;44.90;;;;;;5033428;28;46216;-51
2021/01/14 09:08:04;;;;;;;8.77;3.78;;;24.20;44.90;;;;;;5031496;28;45378;-51
2021/01/14 09:10:51;;;;;;;7.60;3.92;;;24.20;44.90;;;;;;5056328;28;45236;-51
2021/01/14 09:13:20;;;;;;;10.05;4.22;;;24.20;44.80;;;;;;5068898;28;45637;-50
2021/01/14 09:15:46;;;;;;;6.15;3.75;;;24.10;44.80;;;;;;5069272;28;45311;-51
2021/01/14 09:18:12;;;;;;;8.57;3.78;;;24.10;44.80;;;;;;5067503;28;45349;-51
2021/01/14 09:20:38;;;;;;;9.80;4.28;;;24.10;44.80;;;;;;5051550;28;45323;-51
2021/01/14 09:23:20;;;;;;;7.60;3.90;;;24.10;44.70;;;;;;5052043;28;45310;-51
2021/01/14 09:25:47;;;;;;;7.25;3.35;;;24.10;44.80;;;;;;5067742;28;45495;-51
2021/01/14 09:28:13;;;;;;;7.97;3.97;;;24.10;44.80;;;;;;5043736;28;45647;-51
2021/01/14 09:30:39;;;;;;;9.38;4.15;;;24.10;44.90;;;;;;5051146;28;45335;-50
2021/01/14 09:33:05;;;;;;;9.63;3.38;;;24.00;45.00;;;;;;5050514;28;45513;-50
2021/01/14 09:35:31;;;;;;;8.68;4.57;;;24.00;44.90;;;;;;5048935;28;45393;-51
2021/01/14 09:37:56;;;;;;;9.40;4.10;;;24.00;45.00;;;;;;5072833;27;45367;-50
2021/01/14 09:40:22;;;;;;;9.02;3.47;;;24.00;44.90;;;;;;5057400;28;45421;-51
2021/01/14 09:42:51;;;;;;;8.88;4.30;;;24.10;45.10;;;;;;5081767;28;45311;-50
2021/01/14 09:45:18;;;;;;;6.85;3.50;;;24.10;44.90;;;;;;5038880;28;46215;-50
2021/01/14 09:47:50;;;;;;;9.27;3.95;;;24.10;44.90;;;;;;5043376;28;45351;-50
2021/01/14 09:50:17;;;;;;;6.10;3.22;;;24.20;44.80;;;;;;5084616;28;45342;-49
2021/01/14 09:52:43;;;;;;;10.77;3.67;;;24.20;44.70;;;;;;5052629;28;45788;-50
2021/01/14 09:55:13;;;;;;;9.63;3.58;;;24.20;44.80;;;;;;5047622;28;46136;-53
2021/01/14 09:57:49;;;;;;;7.65;3.70;;;24.20;45.20;;;;;;5079300;28;45302;-51
2021/01/14 10:00:20;;;;;;;11.68;4.07;;;24.30;44.90;;;;;;5058433;28;45341;-50
2021/01/14 10:02:48;;;;;;;10.55;3.65;;;24.30;44.90;;;;;;5059910;28;45460;-50
2021/01/14 10:05:15;;;;;;;11.20;3.85;;;24.40;45.20;;;;;;5069426;28;45415;-51
2021/01/14 10:07:42;;;;;;;11.45;3.63;;;24.50;44.80;;;;;;5055732;28;45473;-49
2021/01/14 10:10:08;;;;;;;6.75;3.78;;;24.50;44.50;;;;;;5067010;28;45431;-52
2021/01/14 10:12:34;;;;;;;6.35;3.60;;;24.60;44.50;;;;;;5059955;28;45609;-49
2021/01/14 10:15:15;;;;;;;10.25;3.72;;;24.60;44.50;;;;;;5063362;28;45947;-49
2021/01/14 10:17:41;;;;;;;8.77;2.95;;;24.60;44.30;;;;;;5065434;28;45343;-49
2021/01/14 10:20:08;;;;;;;7.82;3.85;;;24.50;44.30;;;;;;5065501;28;45384;-49
2021/01/14 10:22:36;;;;;;;6.70;3.05;;;24.50;44.30;;;;;;5041791;28;46815;-49
2021/01/14 10:25:07;;;;;;;6.47;3.38;;;24.50;44.30;;;;;;5052680;28;45322;-49
2021/01/14 10:27:33;;;;;;;10.05;3.58;;;24.50;44.40;;;;;;5058121;28;45428;-49
2021/01/14 10:29:59;;;;;;;8.05;3.67;;;24.50;44.40;;;;;;5050459;28;45312;-49
2021/01/14 10:32:25;;;;;;;5.90;3.17;;;24.50;44.50;;;;;;5066363;28;45407;-49
2021/01/14 10:34:52;;;;;;;5.88;2.90;;;24.40;44.60;;;;;;5065059;28;47175;-49
2021/01/14 10:37:29;;;;;;;6.90;3.20;;;24.40;44.70;;;;;;5065121;28;45655;-48
2021/01/14 10:39:56;;;;;;;6.88;3.00;;;24.40;44.90;;;;;;5065747;28;45392;-49
2021/01/14 10:42:28;;;;;;;7.53;3.85;;;24.30;45.00;;;;;;5066978;28;45686;-49
2021/01/14 10:44:59;;;;;;;30.98;9.95;;;24.30;45.10;;;;;;5065626;28;46682;-50
2021/01/14 10:47:25;;;;;;;54.42;17.73;;;24.30;45.30;;;;;;5060460;28;45573;-49
2021/01/14 10:49:51;;;;;;;75.85;26.33;;;24.20;45.40;;;;;;5070781;28;45295;-50
2021/01/14 10:52:16;;;;;;;109.05;45.58;;;24.20;45.50;;;;;;5083028;28;45594;-50
2021/01/14 10:54:42;;;;;;;112.72;47.38;;;24.10;45.60;;;;;;5044207;28;45897;-52
2021/01/14 10:57:08;;;;;;;115.10;46.63;;;24.10;45.70;;;;;;5048810;28;45336;-50
2021/01/14 10:59:34;;;;;;;106.93;47.35;;;24.10;45.90;;;;;;5052530;28;45502;-51
2021/01/14 11:02:09;;;;;;;118.00;52.92;;;24.00;45.20;;;;;;5064523;28;45570;-51
2021/01/14 11:04:35;;;;;;;127.57;62.83;;;24.00;45.50;;;;;;5067320;28;45529;-51
2021/01/14 11:07:12;;;;;;;120.88;61.17;;;23.90;45.90;;;;;;5056289;28;45586;-52
2021/01/14 11:09:50;;;;;;;139.77;61.95;;;23.90;46.00;;;;;;5053932;28;45565;-50
2021/01/14 11:12:17;;;;;;;123.78;60.92;;;23.90;46.20;;;;;;5067499;28;45415;-51
2021/01/14 11:14:42;;;;;;;142.50;63.15;;;23.90;46.10;;;;;;5068985;28;45441;-50
2021/01/14 11:17:08;;;;;;;120.13;60.83;;;23.90;46.10;;;;;;5069564;28;45292;-48
2021/01/14 11:19:34;;;;;;;140.38;61.22;;;23.90;46.30;;;;;;5068317;28;45538;-49
2021/01/14 11:21:59;;;;;;;106.45;54.65;;;23.90;45.90;;;;;;5049803;28;45610;-48
2021/01/14 11:24:25;;;;;;;122.05;55.78;;;24.00;45.50;;;;;;5064744;28;45353;-47
2021/01/14 11:26:51;;;;;;;114.20;51.15;;;24.00;45.10;;;;;;5059779;28;45292;-47
2021/01/14 11:29:16;;;;;;;107.90;51.50;;;24.10;45.30;;;;;;5067709;28;45421;-50
2021/01/14 11:31:42;;;;;;;106.25;53.15;;;24.10;44.70;;;;;;5080352;28;45643;-49
2021/01/14 11:34:08;;;;;;;102.03;50.58;;;24.00;44.90;;;;;;5068236;28;45505;-48
2021/01/14 11:36:33;;;;;;;104.15;48.15;;;24.00;45.00;;;;;;5069180;28;45449;-50
2021/01/14 11:38:59;;;;;;;95.82;46.28;;;23.90;44.90;;;;;;5069168;28;45339;-48
2021/01/14 11:41:25;;;;;;;93.35;48.30;;;24.00;44.70;;;;;;5069514;28;45549;-48
2021/01/14 11:43:51;;;;;;;90.03;45.05;;;24.00;44.60;;;;;;5048114;28;47211;-48
2021/01/14 11:46:24;;;;;;;94.35;44.70;;;23.90;44.50;;;;;;5069427;28;45780;-48
2021/01/14 11:48:51;;;;;;;74.22;42.03;;;23.90;44.40;;;;;;5069823;28;45488;-49
2021/01/14 11:51:16;;;;;;;80.80;43.30;;;23.90;44.40;;;;;;5071449;28;45386;-49
2021/01/14 11:53:42;;;;;;;95.35;47.85;;;23.80;44.70;;;;;;5070792;28;45577;-50
2021/01/14 11:56:08;;;;;;;91.97;42.95;;;23.70;45.20;;;;;;5057330;28;45404;-50
2021/01/14 11:58:35;;;;;;;80.97;43.17;;;23.60;45.30;;;;;;5069619;28;45504;-50
2021/01/14 12:01:00;;;;;;;77.63;41.53;;;23.60;45.40;;;;;;5075432;28;45532;-49
2021/01/14 12:03:28;;;;;;;78.07;42.08;;;23.50;45.30;;;;;;5051420;28;48041;-49
2021/01/14 12:05:53;;;;;;;74.60;38.95;;;23.50;45.30;;;;;;5054395;28;45420;-48
2021/01/14 12:08:19;;;;;;;76.75;39.50;;;23.50;45.40;;;;;;5037360;28;46868;-49
2021/01/14 12:10:45;;;;;;;78.05;38.70;;;23.40;45.60;;;;;;5052052;28;45750;-49
2021/01/14 12:13:10;;;;;;;73.32;38.97;;;23.40;45.80;;;;;;5049649;28;46028;-49
2021/01/14 12:15:36;;;;;;;73.28;35.38;;;23.40;45.90;;;;;;5059230;28;45509;-49
2021/01/14 12:18:02;;;;;;;73.85;38.95;;;23.50;46.10;;;;;;5033200;28;46814;-53
2021/01/14 12:20:27;;;;;;;66.30;35.08;;;23.50;46.00;;;;;;5033537;28;45490;-50
2021/01/14 12:22:53;;;;;;;64.25;37.13;;;23.50;45.80;;;;;;5054821;28;45431;-49
2021/01/14 12:25:19;;;;;;;71.90;35.95;;;23.50;46.10;;;;;;5089569;28;45236;-49
2021/01/14 12:27:45;;;;;;;72.65;37.17;;;23.50;46.40;;;;;;5081638;28;45636;-49
2021/01/14 12:30:11;;;;;;;77.70;39.72;;;23.40;46.70;;;;;;5049478;28;45201;-49
2021/01/14 12:32:37;;;;;;;72.53;37.90;;;23.40;46.80;;;;;;5034824;28;46552;-49
2021/01/14 12:35:03;;;;;;;63.45;35.35;;;23.40;46.80;;;;;;5052140;28;45257;-49
2021/01/14 12:37:33;;;;;;;63.63;33.80;;;23.40;46.80;;;;;;5065340;28;45465;-49
2021/01/14 12:39:59;;;;;;;63.50;35.75;;;23.40;47.00;;;;;;5063454;28;45523;-48
2021/01/14 12:42:24;;;;;;;64.75;34.17;;;23.40;47.50;;;;;;5078838;28;45961;-48
2021/01/14 12:44:50;;;;;;;59.50;32.60;;;23.40;46.90;;;;;;5068351;28;45437;-49
2021/01/14 12:47:16;;;;;;;60.97;32.67;;;23.40;47.10;;;;;;5048890;28;45548;-49
2021/01/14 12:49:41;;;;;;;57.45;29.85;;;23.30;47.20;;;;;;5087917;28;46614;-49